createdAt,value
2019-04-27T00:00:39.838Z,34.10
2019-04-27T00:01:40.611Z,34.50
2019-04-27T00:02:39.835Z,34.30
2019-04-27T00:03:41.483Z,33.70
2019-04-27T00:04:40.636Z,34.60
2019-04-27T00:05:40.874Z,33.80
2019-04-27T00:06:42.994Z,33.10
2019-04-27T00:07:40.877Z,34.00
2019-04-27T00:08:43.028Z,32.10
2019-04-27T00:09:50.008Z,32.80
2019-04-27T00:10:43.633Z,34.80
2019-04-27T00:11:45.364Z,32.50
2019-04-27T00:12:42.928Z,33.20
2019-04-27T00:13:43.989Z,34.50
2019-04-27T00:14:43.951Z,34.00
2019-04-27T00:15:43.953Z,33.10
2019-04-27T00:16:46.968Z,35.00
2019-04-27T00:17:48.660Z,34.10
2019-04-27T00:18:45.534Z,34.80
2019-04-27T00:19:44.647Z,33.30
2019-04-27T00:20:44.976Z,33.60
2019-04-27T00:21:44.968Z,33.00
2019-04-27T00:22:45.538Z,37.40
2019-04-27T00:23:45.684Z,34.70
2019-04-27T00:24:45.937Z,34.80
2019-04-27T00:25:46.263Z,34.50
2019-04-27T00:26:46.630Z,36.20
2019-04-27T00:27:46.999Z,33.70
2019-04-27T00:28:47.394Z,33.30
2019-04-27T00:29:47.675Z,33.30
2019-04-27T00:30:47.943Z,34.30
2019-04-27T00:31:48.441Z,35.40
2019-04-27T00:32:48.476Z,32.10
2019-04-27T00:33:48.280Z,32.20
2019-04-27T00:34:48.665Z,31.50
2019-04-27T00:35:49.048Z,31.50
2019-04-27T00:36:48.678Z,31.00
2019-04-27T00:37:49.347Z,32.60
2019-04-27T00:38:49.108Z,32.10
2019-04-27T00:39:49.590Z,30.40
2019-04-27T00:40:50.030Z,30.70
2019-04-27T00:41:50.538Z,30.20
2019-04-27T00:42:50.287Z,31.30
2019-04-27T00:43:50.696Z,31.40
2019-04-27T00:44:50.986Z,31.50
2019-04-27T00:45:51.434Z,31.00
2019-04-27T00:46:53.304Z,31.20
2019-04-27T00:47:57.437Z,30.50
2019-04-27T00:48:53.342Z,32.00
2019-04-27T00:49:52.608Z,32.10
2019-04-27T00:50:52.908Z,32.30
2019-04-27T00:51:53.567Z,32.50
2019-04-27T00:52:53.160Z,31.90
2019-04-27T00:53:53.560Z,33.20
2019-04-27T00:54:53.938Z,32.40
2019-04-27T00:55:53.685Z,31.30
2019-04-27T00:56:54.174Z,32.30
2019-04-27T00:57:54.538Z,32.00
2019-04-27T00:58:54.476Z,35.90
2019-04-27T00:59:54.568Z,32.50
2019-04-27T01:00:54.982Z,32.80
2019-04-27T01:01:55.300Z,34.30
2019-04-27T01:02:55.217Z,32.70
2019-04-27T01:03:55.581Z,34.70
2019-04-27T01:04:55.763Z,38.70
2019-04-27T01:05:55.988Z,32.20
2019-04-27T01:06:59.436Z,33.90
2019-04-27T01:07:56.974Z,35.40
2019-04-27T01:08:57.014Z,35.50
2019-04-27T01:09:57.023Z,34.50
2019-04-27T01:10:56.824Z,33.00
2019-04-27T01:11:57.067Z,33.80
2019-04-27T01:12:57.924Z,34.60
2019-04-27T01:13:57.857Z,38.20
2019-04-27T01:14:58.092Z,33.10
2019-04-27T01:15:58.325Z,35.20
2019-04-27T01:16:59.882Z,32.70
2019-04-27T01:18:11.680Z,35.30
2019-04-27T01:18:59.103Z,32.80
2019-04-27T01:19:59.634Z,35.20
2019-04-27T01:21:00.002Z,35.30
2019-04-27T01:21:59.763Z,34.10
2019-04-27T01:23:00.186Z,37.00
2019-04-27T01:24:00.523Z,35.40
2019-04-27T01:25:00.927Z,35.20
2019-04-27T01:26:01.009Z,32.10
2019-04-27T01:27:01.467Z,31.20
2019-04-27T01:28:02.017Z,34.00
2019-04-27T01:29:02.026Z,30.80
2019-04-27T01:30:02.019Z,31.30
2019-04-27T01:31:02.391Z,28.90
2019-04-27T01:32:02.805Z,31.00
2019-04-27T01:33:03.059Z,33.20
2019-04-27T01:34:03.164Z,31.60
2019-04-27T01:35:03.218Z,31.40
2019-04-27T01:36:03.273Z,31.40
2019-04-27T01:37:03.323Z,29.80
2019-04-27T01:38:03.414Z,28.30
2019-04-27T01:39:03.701Z,29.20
2019-04-27T01:40:03.949Z,30.10
2019-04-27T01:41:04.023Z,30.30
2019-04-27T01:42:04.079Z,28.00
2019-04-27T01:43:03.824Z,28.60
2019-04-27T01:44:04.069Z,29.30
2019-04-27T01:45:04.415Z,29.60
2019-04-27T01:46:04.703Z,28.90
2019-04-27T01:47:04.952Z,27.80
2019-04-27T01:48:05.346Z,27.00
2019-04-27T01:49:05.359Z,27.50
2019-04-27T01:50:05.695Z,28.80
2019-04-27T01:51:06.160Z,30.20
2019-04-27T01:52:06.486Z,26.40
2019-04-27T01:53:08.836Z,27.30
2019-04-27T01:54:07.125Z,27.40
2019-04-27T01:55:08.420Z,27.80
2019-04-27T01:56:09.072Z,26.50
2019-04-27T01:57:07.303Z,27.90
2019-04-27T01:58:08.819Z,28.60
2019-04-27T01:59:08.654Z,27.40
2019-04-27T02:00:09.154Z,26.00
2019-04-27T02:01:09.630Z,25.60
2019-04-27T02:02:10.511Z,26.30
2019-04-27T02:03:08.988Z,25.50
2019-04-27T02:04:09.454Z,29.50
2019-04-27T02:05:09.372Z,28.00
2019-04-27T02:06:09.638Z,26.90
2019-04-27T02:07:09.900Z,26.00
2019-04-27T02:08:10.143Z,24.60
2019-04-27T02:09:10.470Z,24.50
2019-04-27T02:10:10.992Z,24.00
2019-04-27T02:11:11.118Z,27.30
2019-04-27T02:12:11.426Z,24.50
2019-04-27T02:13:11.681Z,25.30
2019-04-27T02:14:11.926Z,24.00
2019-04-27T02:15:12.478Z,25.20
2019-04-27T02:16:12.241Z,25.70
2019-04-27T02:17:12.497Z,24.80
2019-04-27T02:18:12.720Z,24.00
2019-04-27T02:19:13.016Z,23.80
2019-04-27T02:20:13.565Z,23.60
2019-04-27T02:21:13.480Z,24.90
2019-04-27T02:22:18.536Z,24.80
2019-04-27T02:23:13.947Z,23.90
2019-04-27T02:24:14.406Z,25.10
2019-04-27T02:25:15.013Z,24.20
2019-04-27T02:26:14.899Z,23.40
2019-04-27T02:27:15.143Z,23.10
2019-04-27T02:28:15.802Z,23.60
2019-04-27T02:29:15.951Z,23.40
2019-04-27T02:30:16.511Z,23.80
2019-04-27T02:31:16.388Z,22.70
2019-04-27T02:32:16.829Z,23.60
2019-04-27T02:33:20.057Z,24.50
2019-04-27T02:35:19.260Z,22.00
2019-04-27T02:36:17.045Z,23.60
2019-04-27T02:37:19.987Z,22.40
2019-04-27T02:38:20.167Z,22.90
2019-04-27T02:39:19.562Z,23.40
2019-04-27T02:40:20.491Z,23.60
2019-04-27T02:41:19.901Z,22.90
2019-04-27T02:42:20.025Z,23.00
2019-04-27T02:43:19.531Z,24.00
2019-04-27T02:44:20.033Z,24.30
2019-04-27T02:45:22.193Z,24.90
2019-04-27T02:46:20.375Z,24.50
2019-04-27T02:47:21.109Z,22.80
2019-04-27T02:48:21.040Z,23.50
2019-04-27T02:49:21.265Z,24.20
2019-04-27T02:50:21.532Z,25.40
2019-04-27T02:51:21.815Z,26.10
2019-04-27T02:52:21.738Z,26.30
2019-04-27T02:53:22.047Z,25.30
2019-04-27T02:54:22.515Z,25.30
2019-04-27T02:55:23.056Z,26.50
2019-04-27T02:56:23.091Z,25.80
2019-04-27T02:57:22.850Z,25.50
2019-04-27T02:58:23.349Z,26.00
2019-04-27T02:59:23.596Z,26.30
2019-04-27T03:00:24.042Z,27.80
2019-04-27T03:01:24.460Z,28.30
2019-04-27T03:02:24.428Z,27.40
2019-04-27T03:03:25.011Z,29.90
2019-04-27T03:04:24.923Z,30.60
2019-04-27T03:05:25.216Z,28.20
2019-04-27T03:06:25.584Z,27.60
2019-04-27T03:07:25.821Z,28.30
2019-04-27T03:08:26.043Z,31.60
2019-04-27T03:09:26.346Z,29.30
2019-04-27T03:10:26.695Z,33.70
2019-04-27T03:11:26.839Z,33.00
2019-04-27T03:12:29.405Z,32.10
2019-04-27T03:13:30.197Z,31.70
2019-04-27T03:14:32.612Z,35.80
2019-04-27T03:15:30.560Z,37.40
2019-04-27T03:16:29.654Z,33.60
2019-04-27T03:17:31.056Z,35.40
2019-04-27T03:18:32.150Z,33.00
2019-04-27T03:19:29.997Z,31.00
2019-04-27T03:20:30.233Z,34.80
2019-04-27T03:21:30.227Z,37.30
2019-04-27T03:22:30.406Z,40.50
2019-04-27T03:23:30.571Z,39.00
2019-04-27T03:24:30.751Z,39.90
2019-04-27T03:25:32.513Z,37.70
2019-04-27T03:26:31.716Z,45.30
2019-04-27T03:27:31.784Z,43.80
2019-04-27T03:28:32.269Z,42.70
2019-04-27T03:29:32.375Z,45.80
2019-04-27T03:30:36.145Z,47.10
2019-04-27T03:31:33.284Z,45.30
2019-04-27T03:32:33.550Z,48.10
2019-04-27T03:33:33.541Z,48.60
2019-04-27T03:34:34.037Z,52.40
2019-04-27T03:35:36.815Z,47.40
2019-04-27T03:36:34.883Z,49.40
2019-04-27T03:37:34.863Z,48.80
2019-04-27T03:38:35.112Z,48.50
2019-04-27T03:39:35.395Z,56.00
2019-04-27T03:40:35.662Z,51.90
2019-04-27T03:41:35.983Z,45.70
2019-04-27T03:42:37.949Z,46.10
2019-04-27T03:43:36.816Z,48.80
2019-04-27T03:44:36.638Z,45.80
2019-04-27T03:45:39.774Z,45.90
2019-04-27T03:46:39.615Z,47.20
2019-04-27T03:47:40.292Z,49.50
2019-04-27T03:48:40.454Z,48.70
2019-04-27T03:49:41.604Z,50.50
2019-04-27T03:50:40.326Z,52.70
2019-04-27T03:51:40.278Z,46.90
2019-04-27T03:52:39.757Z,49.60
2019-04-27T03:53:39.819Z,46.70
2019-04-27T03:54:40.136Z,47.80
2019-04-27T03:55:42.873Z,48.90
2019-04-27T03:56:40.167Z,46.00
2019-04-27T03:57:40.491Z,47.60
2019-04-27T03:58:40.967Z,44.80
2019-04-27T03:59:41.085Z,47.80
2019-04-27T04:00:41.537Z,49.90
2019-04-27T04:01:41.781Z,48.60
2019-04-27T04:02:42.039Z,44.80
2019-04-27T04:03:42.332Z,46.90
2019-04-27T04:04:42.746Z,49.60
2019-04-27T04:05:43.368Z,51.60
2019-04-27T04:06:43.168Z,49.40
2019-04-27T04:07:43.531Z,47.60
2019-04-27T04:08:43.797Z,47.80
2019-04-27T04:09:44.063Z,46.00
2019-04-27T04:10:44.448Z,43.70
2019-04-27T04:11:44.831Z,47.00
2019-04-27T04:12:45.096Z,45.70
2019-04-27T04:13:45.222Z,47.00
2019-04-27T04:14:45.239Z,45.80
2019-04-27T04:15:45.676Z,44.10
2019-04-27T04:16:45.705Z,0.00
2019-04-27T04:17:45.935Z,46.00
2019-04-27T04:18:46.179Z,45.70
2019-04-27T04:19:54.329Z,43.60
2019-04-27T04:21:47.275Z,41.00
2019-04-27T04:22:47.057Z,43.90
2019-04-27T04:23:49.343Z,45.20
2019-04-27T04:24:47.791Z,37.30
2019-04-27T04:25:49.923Z,37.00
2019-04-27T04:26:50.221Z,37.50
2019-04-27T04:27:50.682Z,34.50
2019-04-27T04:28:50.023Z,34.40
2019-04-27T04:29:49.398Z,33.60
2019-04-27T04:30:50.289Z,36.90
2019-04-27T04:31:50.558Z,32.50
2019-04-27T04:32:52.014Z,36.00
2019-04-27T04:33:50.628Z,31.80
2019-04-27T04:34:50.923Z,31.70
2019-04-27T04:35:51.185Z,31.90
2019-04-27T04:36:51.413Z,32.30
2019-04-27T04:37:52.987Z,30.70
2019-04-27T04:38:52.467Z,31.40
2019-04-27T04:39:53.528Z,31.20
2019-04-27T04:40:52.834Z,30.50
2019-04-27T04:41:52.740Z,30.70
2019-04-27T04:42:52.826Z,30.50
2019-04-27T04:43:52.777Z,30.40
2019-04-27T04:44:53.326Z,31.00
2019-04-27T04:45:53.331Z,32.00
2019-04-27T04:46:53.418Z,32.60
2019-04-27T04:47:53.667Z,31.70
2019-04-27T04:48:54.076Z,31.10
2019-04-27T04:50:07.371Z,30.60
2019-04-27T04:50:54.366Z,29.70
2019-04-27T04:51:54.770Z,30.10
2019-04-27T04:52:54.987Z,31.60
2019-04-27T04:53:55.242Z,33.30
2019-04-27T04:54:55.663Z,31.60
2019-04-27T04:55:55.908Z,35.80
2019-04-27T04:56:56.161Z,32.20
2019-04-27T04:57:56.631Z,31.00
2019-04-27T04:58:56.942Z,31.70
2019-04-27T04:59:59.215Z,30.40
2019-04-27T05:00:59.627Z,31.20
2019-04-27T05:02:59.546Z,30.00
2019-04-27T05:03:59.072Z,30.40
2019-04-27T05:04:59.151Z,29.70
2019-04-27T05:05:59.440Z,28.40
2019-04-27T05:06:59.671Z,27.90
2019-04-27T05:08:00.703Z,29.80
2019-04-27T05:09:00.479Z,30.90
2019-04-27T05:10:00.760Z,30.50
2019-04-27T05:11:01.138Z,29.00
2019-04-27T05:12:01.692Z,29.10
2019-04-27T05:13:01.805Z,29.90
2019-04-27T05:14:01.907Z,30.90
2019-04-27T05:15:01.675Z,32.70
2019-04-27T05:16:02.185Z,32.00
2019-04-27T05:17:02.753Z,31.70
2019-04-27T05:18:02.800Z,32.20
2019-04-27T05:19:02.867Z,30.10
2019-04-27T05:20:02.969Z,30.70
2019-04-27T05:21:03.211Z,28.30
2019-04-27T05:22:03.289Z,28.60
2019-04-27T05:23:03.870Z,29.10
2019-04-27T05:24:03.936Z,27.40
2019-04-27T05:25:03.801Z,27.30
2019-04-27T05:26:04.370Z,27.10
2019-04-27T05:27:04.442Z,25.90
2019-04-27T05:28:04.543Z,26.20
2019-04-27T05:29:04.312Z,25.90
2019-04-27T05:30:04.909Z,24.60
2019-04-27T05:31:04.978Z,24.30
2019-04-27T05:32:04.899Z,25.20
2019-04-27T05:33:05.284Z,23.30
2019-04-27T05:34:06.854Z,22.30
2019-04-27T05:35:05.922Z,23.90
2019-04-27T05:36:06.807Z,21.90
2019-04-27T05:37:06.785Z,22.80
2019-04-27T05:38:10.513Z,21.80
2019-04-27T05:39:07.399Z,22.20
2019-04-27T05:40:09.143Z,21.30
2019-04-27T05:41:08.545Z,19.70
2019-04-27T05:42:12.462Z,20.10
2019-04-27T05:43:09.223Z,19.00
2019-04-27T05:44:12.760Z,18.10
2019-04-27T05:45:09.420Z,18.60
2019-04-27T05:46:12.313Z,19.30
2019-04-27T05:47:13.113Z,17.80
2019-04-27T05:48:10.890Z,18.10
2019-04-27T05:49:10.786Z,16.50
2019-04-27T05:50:13.409Z,17.10
2019-04-27T05:51:11.279Z,15.60
2019-04-27T05:52:14.677Z,16.70
2019-04-27T05:53:11.827Z,15.50
2019-04-27T05:54:12.330Z,15.90
2019-04-27T05:55:12.736Z,14.60
2019-04-27T05:56:13.078Z,13.70
2019-04-27T05:57:13.359Z,13.70
2019-04-27T05:58:13.796Z,13.40
2019-04-27T05:59:14.912Z,14.30
2019-04-27T06:00:13.869Z,14.10
2019-04-27T06:01:14.175Z,12.50
2019-04-27T06:02:14.451Z,13.60
2019-04-27T06:03:14.735Z,12.60
2019-04-27T06:04:14.755Z,12.40
2019-04-27T06:05:15.338Z,12.80
2019-04-27T06:06:15.082Z,12.50
2019-04-27T06:07:15.303Z,11.50
2019-04-27T06:08:15.711Z,11.30
2019-04-27T06:09:16.165Z,11.30
2019-04-27T06:10:16.750Z,11.10
2019-04-27T06:11:16.737Z,9.80
2019-04-27T06:12:17.008Z,11.50
2019-04-27T06:13:18.971Z,10.90
2019-04-27T06:14:19.214Z,10.50
2019-04-27T06:15:19.699Z,10.90
2019-04-27T06:16:19.484Z,9.90
2019-04-27T06:17:19.521Z,9.40
2019-04-27T06:18:19.041Z,8.80
2019-04-27T06:19:19.431Z,8.50
2019-04-27T06:20:19.109Z,9.40
2019-04-27T06:21:19.863Z,10.20
2019-04-27T06:22:19.984Z,9.90
2019-04-27T06:23:21.048Z,8.80
2019-04-27T06:24:19.756Z,7.20
2019-04-27T06:25:21.459Z,7.20
2019-04-27T06:26:20.589Z,6.50
2019-04-27T06:27:21.162Z,7.50
2019-04-27T06:28:21.309Z,5.90
2019-04-27T06:29:22.015Z,6.40
2019-04-27T06:30:21.987Z,7.20
2019-04-27T06:31:22.258Z,7.30
2019-04-27T06:32:22.655Z,6.90
2019-04-27T06:33:32.058Z,6.90
2019-04-27T06:34:22.836Z,6.90
2019-04-27T06:35:23.455Z,6.70
2019-04-27T06:36:23.251Z,6.40
2019-04-27T06:37:23.643Z,6.80
2019-04-27T06:38:23.891Z,6.50
2019-04-27T06:39:23.900Z,6.10
2019-04-27T06:40:23.883Z,5.80
2019-04-27T06:41:24.232Z,7.30
2019-04-27T06:42:24.322Z,6.20
2019-04-27T06:43:24.315Z,7.20
2019-04-27T06:44:24.879Z,5.70
2019-04-27T06:45:25.123Z,5.60
2019-04-27T06:46:25.502Z,7.40
2019-04-27T06:47:25.804Z,6.20
2019-04-27T06:48:26.054Z,5.30
2019-04-27T06:49:26.550Z,5.10
2019-04-27T06:50:26.496Z,5.40
2019-04-27T06:51:28.532Z,5.40
2019-04-27T06:52:28.901Z,5.20
2019-04-27T06:53:29.077Z,5.10
2019-04-27T06:54:28.861Z,5.20
2019-04-27T06:55:29.108Z,4.80
2019-04-27T06:56:28.835Z,4.70
2019-04-27T06:57:29.219Z,5.00
2019-04-27T06:58:29.294Z,5.10
2019-04-27T06:59:29.468Z,4.70
2019-04-27T07:00:29.754Z,5.90
2019-04-27T07:01:30.112Z,4.60
2019-04-27T07:02:30.336Z,4.30
2019-04-27T07:04:30.948Z,4.20
2019-04-27T07:05:30.705Z,5.00
2019-04-27T07:06:31.155Z,4.90
2019-04-27T07:07:31.587Z,5.50
2019-04-27T07:08:31.864Z,6.40
2019-04-27T07:09:32.122Z,4.30
2019-04-27T07:10:32.685Z,4.10
2019-04-27T07:11:32.953Z,4.30
2019-04-27T07:12:33.238Z,4.40
2019-04-27T07:13:33.647Z,4.70
2019-04-27T07:14:33.967Z,4.00
2019-04-27T07:15:34.236Z,4.20
2019-04-27T07:16:34.599Z,3.80
2019-04-27T07:17:34.890Z,6.10
2019-04-27T07:18:35.196Z,4.10
2019-04-27T07:19:35.496Z,4.00
2019-04-27T07:20:36.047Z,3.50
2019-04-27T07:21:39.995Z,4.00
2019-04-27T07:22:35.886Z,3.80
2019-04-27T07:23:36.225Z,3.30
2019-04-27T07:24:36.168Z,4.40
2019-04-27T07:25:36.721Z,4.50
2019-04-27T07:26:36.699Z,4.20
2019-04-27T07:27:36.953Z,5.90
2019-04-27T07:28:37.206Z,3.80
2019-04-27T07:29:40.315Z,4.20
2019-04-27T07:30:38.790Z,4.30
2019-04-27T07:31:40.081Z,5.30
2019-04-27T07:32:39.161Z,4.60
2019-04-27T07:33:39.602Z,6.40
2019-04-27T07:34:39.310Z,3.90
2019-04-27T07:35:39.764Z,6.90
2019-04-27T07:36:40.069Z,4.40
2019-04-27T07:37:40.364Z,4.00
2019-04-27T07:38:40.357Z,4.80
2019-04-27T07:39:40.879Z,4.80
2019-04-27T07:40:42.046Z,4.20
2019-04-27T07:41:41.107Z,4.10
2019-04-27T07:42:41.499Z,4.30
2019-04-27T07:43:41.447Z,5.50
2019-04-27T07:44:41.891Z,5.00
2019-04-27T07:45:41.768Z,4.80
2019-04-27T07:46:42.139Z,4.40
2019-04-27T07:47:42.464Z,4.40
2019-04-27T07:48:42.808Z,4.30
2019-04-27T07:49:43.201Z,4.50
2019-04-27T07:50:43.484Z,4.60
2019-04-27T07:51:43.874Z,4.50
2019-04-27T07:52:43.858Z,4.40
2019-04-27T07:53:44.190Z,4.70
2019-04-27T07:54:44.546Z,4.40
2019-04-27T07:55:44.927Z,4.40
2019-04-27T07:56:45.082Z,4.20
2019-04-27T07:57:45.394Z,4.40
2019-04-27T07:58:45.896Z,4.50
2019-04-27T07:59:45.896Z,4.50
2019-04-27T08:00:46.163Z,4.60
2019-04-27T08:01:46.488Z,4.30
2019-04-27T08:02:48.536Z,4.90
2019-04-27T08:03:48.932Z,4.40
2019-04-27T08:04:48.487Z,5.50
2019-04-27T08:05:49.150Z,5.00
2019-04-27T08:06:49.625Z,4.90
2019-04-27T08:07:49.223Z,7.20
2019-04-27T08:08:49.313Z,5.40
2019-04-27T08:09:49.821Z,5.20
2019-04-27T08:10:50.254Z,5.00
2019-04-27T08:11:49.753Z,5.70
2019-04-27T08:12:50.012Z,5.70
2019-04-27T08:13:50.341Z,5.30
2019-04-27T08:14:50.786Z,6.30
2019-04-27T08:15:51.052Z,5.40
2019-04-27T08:16:51.312Z,5.00
2019-04-27T08:17:51.709Z,5.20
2019-04-27T08:18:52.156Z,5.10
2019-04-27T08:19:52.566Z,5.20
2019-04-27T08:20:53.105Z,5.70
2019-04-27T08:21:52.923Z,5.30
2019-04-27T08:22:53.421Z,6.10
2019-04-27T08:23:53.178Z,5.00
2019-04-27T08:24:53.737Z,5.00
2019-04-27T08:25:53.986Z,5.50
2019-04-27T08:26:54.366Z,5.20
2019-04-27T08:27:54.470Z,4.80
2019-04-27T08:28:55.073Z,5.10
2019-04-27T08:29:55.099Z,5.40
2019-04-27T08:30:55.290Z,4.80
2019-04-27T08:31:55.726Z,5.80
2019-04-27T08:32:55.886Z,5.30
2019-04-27T08:33:56.203Z,4.80
2019-04-27T08:34:56.482Z,5.80
2019-04-27T08:35:56.723Z,5.90
2019-04-27T08:36:58.456Z,7.20
2019-04-27T08:37:59.199Z,4.90
2019-04-27T08:38:58.863Z,6.70
2019-04-27T08:39:59.208Z,5.10
2019-04-27T08:40:59.233Z,4.90
2019-04-27T08:42:59.263Z,6.60
2019-04-27T08:43:58.906Z,5.90
2019-04-27T08:44:59.515Z,5.00
2019-04-27T08:46:00.352Z,4.90
2019-04-27T08:46:59.873Z,6.50
2019-04-27T08:48:00.247Z,4.70
2019-04-27T08:49:00.554Z,5.40
2019-04-27T08:50:01.181Z,5.30
2019-04-27T08:51:01.289Z,5.00
2019-04-27T08:52:01.929Z,5.80
2019-04-27T08:53:01.539Z,5.10
2019-04-27T08:54:02.088Z,6.90
2019-04-27T08:55:02.171Z,5.80
2019-04-27T08:56:02.546Z,5.40
2019-04-27T08:57:02.639Z,6.70
2019-04-27T08:58:02.762Z,5.60
2019-04-27T08:59:02.851Z,6.80
2019-04-27T09:00:02.847Z,5.60
2019-04-27T09:01:03.220Z,5.90
2019-04-27T09:02:03.371Z,5.60
2019-04-27T09:03:03.380Z,6.00
2019-04-27T09:04:03.428Z,6.20
2019-04-27T09:05:03.470Z,4.90
2019-04-27T09:06:04.047Z,5.30
2019-04-27T09:07:04.518Z,5.70
2019-04-27T09:08:04.871Z,5.50
2019-04-27T09:09:05.031Z,7.40
2019-04-27T09:10:04.987Z,5.80
2019-04-27T09:11:05.513Z,6.10
2019-04-27T09:12:05.449Z,7.00
2019-04-27T09:13:05.877Z,6.30
2019-04-27T09:14:06.313Z,7.70
2019-04-27T09:15:07.105Z,7.10
2019-04-27T09:16:07.165Z,8.60
2019-04-27T09:17:07.172Z,6.40
2019-04-27T09:18:08.996Z,6.50
2019-04-27T09:19:08.806Z,7.70
2019-04-27T09:20:09.547Z,6.20
2019-04-27T09:21:10.474Z,6.30
2019-04-27T09:22:15.988Z,7.40
2019-04-27T09:23:09.865Z,6.60
2019-04-27T09:24:09.491Z,5.90
2019-04-27T09:25:10.587Z,5.50
2019-04-27T09:26:11.118Z,5.80
2019-04-27T09:27:10.061Z,6.60
2019-04-27T09:28:09.812Z,5.50
2019-04-27T09:29:10.048Z,6.30
2019-04-27T09:30:10.429Z,6.20
2019-04-27T09:31:10.800Z,5.60
2019-04-27T09:32:11.225Z,5.40
2019-04-27T09:33:11.656Z,5.00
2019-04-27T09:34:12.765Z,5.10
2019-04-27T09:35:12.149Z,4.90
2019-04-27T09:36:12.174Z,6.00
2019-04-27T09:37:11.983Z,4.90
2019-04-27T09:38:12.248Z,5.20
2019-04-27T09:39:12.570Z,5.20
2019-04-27T09:40:13.158Z,4.30
2019-04-27T09:41:12.910Z,6.90
2019-04-27T09:42:13.220Z,4.10
2019-04-27T09:43:13.713Z,4.40
2019-04-27T09:44:15.986Z,4.40
2019-04-27T09:45:15.902Z,4.10
2019-04-27T09:46:15.709Z,4.60
2019-04-27T09:47:16.417Z,4.70
2019-04-27T09:48:15.938Z,4.60
2019-04-27T09:49:15.789Z,4.30
2019-04-27T09:50:16.213Z,3.90
2019-04-27T09:51:16.235Z,4.00
2019-04-27T09:52:24.304Z,4.20
2019-04-27T09:53:16.164Z,5.00
2019-04-27T09:54:16.908Z,3.60
2019-04-27T09:55:17.175Z,5.30
2019-04-27T09:56:17.609Z,4.20
2019-04-27T09:57:17.931Z,4.60
2019-04-27T09:58:18.729Z,4.30
2019-04-27T09:59:18.754Z,5.10
2019-04-27T10:00:19.000Z,4.40
2019-04-27T10:01:19.250Z,4.90
2019-04-27T10:02:19.876Z,3.90
2019-04-27T10:03:19.618Z,4.60
2019-04-27T10:04:19.945Z,4.20
2019-04-27T10:05:20.562Z,3.40
2019-04-27T10:06:20.569Z,3.30
2019-04-27T10:07:20.362Z,4.40
2019-04-27T10:08:20.635Z,4.90
2019-04-27T10:09:20.898Z,4.40
2019-04-27T10:10:21.371Z,3.60
2019-04-27T10:11:21.725Z,3.50
2019-04-27T10:12:21.983Z,3.90
2019-04-27T10:13:22.237Z,3.70
2019-04-27T10:14:22.667Z,3.90
2019-04-27T10:15:22.983Z,5.30
2019-04-27T10:16:23.334Z,3.40
2019-04-27T10:17:23.773Z,5.80
2019-04-27T10:18:24.028Z,4.90
2019-04-27T10:19:30.740Z,4.90
2019-04-27T10:20:25.016Z,3.80
2019-04-27T10:21:26.409Z,3.40
2019-04-27T10:22:39.936Z,3.50
2019-04-27T10:23:25.225Z,5.30
2019-04-27T10:24:25.876Z,3.90
2019-04-27T10:25:25.678Z,4.40
2019-04-27T10:26:26.024Z,3.30
2019-04-27T10:27:26.236Z,3.80
2019-04-27T10:28:26.626Z,3.30
2019-04-27T10:29:26.977Z,3.90
2019-04-27T10:30:27.212Z,4.40
2019-04-27T10:31:27.565Z,5.10
2019-04-27T10:32:28.069Z,4.20
2019-04-27T10:33:28.075Z,3.40
2019-04-27T10:34:28.483Z,3.20
2019-04-27T10:35:28.741Z,3.50
2019-04-27T10:36:29.074Z,4.10
2019-04-27T10:37:29.435Z,3.20
2019-04-27T10:38:30.010Z,3.70
2019-04-27T10:39:30.082Z,4.80
2019-04-27T10:40:30.342Z,5.90
2019-04-27T10:41:30.762Z,5.30
2019-04-27T10:42:31.000Z,3.80
2019-04-27T10:43:31.235Z,4.10
2019-04-27T10:44:31.607Z,5.00
2019-04-27T10:45:32.057Z,4.20
2019-04-27T10:46:32.295Z,4.40
2019-04-27T10:47:32.744Z,4.80
2019-04-27T10:48:32.971Z,4.50
2019-04-27T10:49:33.445Z,4.30
2019-04-27T10:50:33.963Z,4.40
2019-04-27T10:51:33.721Z,4.90
2019-04-27T10:52:33.994Z,5.20
2019-04-27T10:53:35.626Z,6.20
2019-04-27T10:54:34.679Z,7.50
2019-04-27T10:55:36.322Z,5.10
2019-04-27T10:56:36.156Z,4.60
2019-04-27T10:57:35.701Z,5.10
2019-04-27T10:58:35.960Z,5.40
2019-04-27T10:59:36.222Z,3.90
2019-04-27T11:00:36.855Z,4.90
2019-04-27T11:01:36.766Z,4.90
2019-04-27T11:02:37.113Z,4.90
2019-04-27T11:03:37.394Z,4.70
2019-04-27T11:04:37.802Z,6.10
2019-04-27T11:05:38.248Z,5.40
2019-04-27T11:06:38.594Z,5.30
2019-04-27T11:07:38.528Z,6.20
2019-04-27T11:08:38.894Z,4.90
2019-04-27T11:09:39.328Z,6.70
2019-04-27T11:10:39.572Z,6.50
2019-04-27T11:11:39.451Z,5.60
2019-04-27T11:12:39.885Z,6.50
2019-04-27T11:13:40.144Z,5.40
2019-04-27T11:14:40.581Z,6.10
2019-04-27T11:15:40.818Z,5.40
2019-04-27T11:16:41.051Z,5.30
2019-04-27T11:17:41.308Z,6.50
2019-04-27T11:18:41.319Z,5.70
2019-04-27T11:19:41.762Z,7.30
2019-04-27T11:20:42.047Z,6.10
2019-04-27T11:21:42.383Z,6.20
2019-04-27T11:22:42.899Z,8.50
2019-04-27T11:23:43.150Z,7.60
2019-04-27T11:24:43.605Z,6.70
2019-04-27T11:25:43.851Z,5.80
2019-04-27T11:26:44.416Z,6.90
2019-04-27T11:27:44.973Z,6.20
2019-04-27T11:28:46.334Z,7.00
2019-04-27T11:29:46.230Z,5.70
2019-04-27T11:30:45.046Z,7.40
2019-04-27T11:31:46.557Z,8.10
2019-04-27T11:32:45.878Z,7.70
2019-04-27T11:33:46.498Z,9.30
2019-04-27T11:34:46.564Z,7.60
2019-04-27T11:35:47.002Z,9.60
2019-04-27T11:36:46.889Z,9.00
2019-04-27T11:37:46.921Z,6.80
2019-04-27T11:38:47.296Z,6.40
2019-04-27T11:39:47.715Z,6.80
2019-04-27T11:40:48.229Z,5.40
2019-04-27T11:41:48.330Z,8.30
2019-04-27T11:42:48.361Z,8.70
2019-04-27T11:43:48.623Z,7.50
2019-04-27T11:44:48.848Z,7.60
2019-04-27T11:45:49.153Z,6.00
2019-04-27T11:46:49.421Z,6.10
2019-04-27T11:47:49.686Z,4.90
2019-04-27T11:48:50.018Z,5.50
2019-04-27T11:49:50.465Z,7.50
2019-04-27T11:50:50.945Z,6.00
2019-04-27T11:51:51.233Z,7.90
2019-04-27T11:52:51.529Z,6.90
2019-04-27T11:53:51.432Z,7.50
2019-04-27T11:54:51.674Z,7.80
2019-04-27T11:55:51.978Z,5.50
2019-04-27T11:56:52.436Z,10.30
2019-04-27T11:57:52.781Z,7.70
2019-04-27T11:58:53.287Z,5.10
2019-04-27T11:59:53.321Z,4.90
2019-04-27T12:00:53.156Z,5.60
2019-04-27T12:01:53.585Z,5.00
2019-04-27T12:02:53.827Z,5.30
2019-04-27T12:03:55.621Z,5.10
2019-04-27T12:04:54.326Z,9.50
2019-04-27T12:05:58.118Z,5.80
2019-04-27T12:06:56.483Z,7.10
2019-04-27T12:07:56.131Z,4.70
2019-04-27T12:08:55.846Z,6.20
2019-04-27T12:09:56.087Z,6.80
2019-04-27T12:10:56.337Z,5.90
2019-04-27T12:12:06.784Z,6.10
2019-04-27T12:12:57.251Z,5.20
2019-04-27T12:13:57.728Z,4.20
2019-04-27T12:14:58.098Z,5.20
2019-04-27T12:15:58.584Z,3.90
2019-04-27T12:16:58.983Z,5.90
2019-04-27T12:17:59.029Z,4.80
2019-04-27T12:18:59.334Z,5.10
2019-04-27T12:19:59.770Z,4.10
2019-04-27T12:20:59.931Z,7.40
2019-04-27T12:21:59.971Z,4.20
2019-04-27T12:22:59.903Z,5.70
2019-04-27T12:24:00.336Z,3.90
2019-04-27T12:25:00.201Z,4.20
2019-04-27T12:26:00.568Z,4.50
2019-04-27T12:27:01.164Z,4.60
2019-04-27T12:28:01.465Z,6.20
2019-04-27T12:29:01.693Z,3.90
2019-04-27T12:30:02.260Z,4.20
2019-04-27T12:31:02.595Z,3.10
2019-04-27T12:32:02.838Z,4.50
2019-04-27T12:33:02.903Z,4.20
2019-04-27T12:34:02.975Z,4.20
2019-04-27T12:35:02.735Z,3.60
2019-04-27T12:36:03.326Z,2.90
2019-04-27T12:37:07.130Z,4.00
2019-04-27T12:38:03.743Z,4.30
2019-04-27T12:39:05.537Z,3.90
2019-04-27T12:40:05.917Z,4.40
2019-04-27T12:41:06.637Z,2.60
2019-04-27T12:42:06.090Z,3.30
2019-04-27T12:43:05.402Z,4.30
2019-04-27T12:44:07.129Z,3.50
2019-04-27T12:45:06.358Z,6.20
2019-04-27T12:46:06.106Z,3.40
2019-04-27T12:47:06.434Z,3.30
2019-04-27T12:48:06.957Z,2.40
2019-04-27T12:49:07.107Z,2.90
2019-04-27T12:50:07.160Z,2.70
2019-04-27T12:51:07.476Z,3.90
2019-04-27T12:52:08.040Z,3.60
2019-04-27T12:53:07.782Z,2.70
2019-04-27T12:54:07.783Z,2.70
2019-04-27T12:55:08.196Z,3.00
2019-04-27T12:56:08.377Z,3.60
2019-04-27T12:57:08.296Z,3.00
2019-04-27T12:58:08.947Z,3.60
2019-04-27T12:59:09.029Z,3.60
2019-04-27T13:00:09.452Z,2.80
2019-04-27T13:01:09.922Z,4.20
2019-04-27T13:02:10.137Z,3.10
2019-04-27T13:03:10.391Z,2.20
2019-04-27T13:04:10.847Z,2.70
2019-04-27T13:05:11.135Z,2.40
2019-04-27T13:06:11.107Z,2.10
2019-04-27T13:07:11.362Z,2.00
2019-04-27T13:08:11.596Z,3.00
2019-04-27T13:09:11.937Z,3.10
2019-04-27T13:10:12.172Z,4.50
2019-04-27T13:11:11.962Z,2.10
2019-04-27T13:12:12.215Z,1.50
2019-04-27T13:13:12.597Z,1.90
2019-04-27T13:14:13.096Z,2.00
2019-04-27T13:15:13.581Z,2.60